sensor_id;sensor_type;location;lat;lon;timestamp;temperature;humidity
10662;DHT22;5379;51.034;7.006;2022-12-07T00:01:44;8.40;99.90
10662;DHT22;5379;51.034;7.006;2022-12-07T00:04:13;8.30;99.90
10662;DHT22;5379;51.034;7.006;2022-12-07T00:06:41;8.30;99.90
10662;DHT22;5379;51.034;7.006;2022-12-07T00:09:12;8.30;99.90
10662;DHT22;5379;51.034;7.006;2022-12-07T00:11:41;8.30;99.90
10662;DHT22;5379;51.034;7.006;2022-12-07T00:14:12;8.30;99.90
10662;DHT22;5379;51.034;7.006;2022-12-07T00:16:40;8.30;99.90
10662;DHT22;5379;51.034;7.006;2022-12-07T00:19:10;8.30;99.90
10662;DHT22;5379;51.034;7.006;2022-12-07T00:21:38;8.30;99.90
10662;DHT22;5379;51.034;7.006;2022-12-07T00:24:06;8.30;99.90
10662;DHT22;5379;51.034;7.006;2022-12-07T00:26:35;8.30;99.90
10662;DHT22;5379;51.034;7.006;2022-12-07T00:29:06;8.30;99.90
10662;DHT22;5379;51.034;7.006;2022-12-07T00:31:35;8.30;99.90
10662;DHT22;5379;51.034;7.006;2022-12-07T00:34:04;8.30;99.90
10662;DHT22;5379;51.034;7.006;2022-12-07T00:36:32;8.30;99.90
10662;DHT22;5379;51.034;7.006;2022-12-07T00:39:00;8.30;99.90
10662;DHT22;5379;51.034;7.006;2022-12-07T00:41:28;8.30;99.90
10662;DHT22;5379;51.034;7.006;2022-12-07T00:43:56;8.30;99.90
10662;DHT22;5379;51.034;7.006;2022-12-07T00:46:25;8.30;99.90
10662;DHT22;5379;51.034;7.006;2022-12-07T00:48:53;8.30;99.90
10662;DHT22;5379;51.034;7.006;2022-12-07T00:51:21;8.30;99.90
10662;DHT22;5379;51.034;7.006;2022-12-07T00:53:49;8.40;99.90
10662;DHT22;5379;51.034;7.006;2022-12-07T00:56:18;8.40;99.90
10662;DHT22;5379;51.034;7.006;2022-12-07T00:58:49;8.40;99.90
10662;DHT22;5379;51.034;7.006;2022-12-07T01:01:16;8.30;99.90
10662;DHT22;5379;51.034;7.006;2022-12-07T01:03:45;8.30;99.90
10662;DHT22;5379;51.034;7.006;2022-12-07T01:06:14;8.30;99.90
10662;DHT22;5379;51.034;7.006;2022-12-07T01:08:41;8.40;99.90
10662;DHT22;5379;51.034;7.006;2022-12-07T01:11:11;8.30;99.90
10662;DHT22;5379;51.034;7.006;2022-12-07T01:13:38;8.30;99.90
10662;DHT22;5379;51.034;7.006;2022-12-07T01:16:06;8.30;99.90
10662;DHT22;5379;51.034;7.006;2022-12-07T01:18:35;8.30;99.90
10662;DHT22;5379;51.034;7.006;2022-12-07T01:21:07;8.30;99.90
10662;DHT22;5379;51.034;7.006;2022-12-07T01:23:35;8.30;99.90
10662;DHT22;5379;51.034;7.006;2022-12-07T01:26:04;8.30;99.90
10662;DHT22;5379;51.034;7.006;2022-12-07T01:28:32;8.30;99.90
10662;DHT22;5379;51.034;7.006;2022-12-07T05:30:35;7.50;99.90
10662;DHT22;5379;51.034;7.006;2022-12-07T05:33:02;7.50;99.90
10662;DHT22;5379;51.034;7.006;2022-12-07T05:35:29;7.50;99.90
10662;DHT22;5379;51.034;7.006;2022-12-07T05:37:56;7.50;99.90
10662;DHT22;5379;51.034;7.006;2022-12-07T05:40:24;7.50;99.90
10662;DHT22;5379;51.034;7.006;2022-12-07T05:42:51;7.50;99.90
10662;DHT22;5379;51.034;7.006;2022-12-07T05:45:17;7.50;99.90
10662;DHT22;5379;51.034;7.006;2022-12-07T05:47:45;7.60;99.90
10662;DHT22;5379;51.034;7.006;2022-12-07T05:50:12;7.70;99.90
10662;DHT22;5379;51.034;7.006;2022-12-07T05:52:39;7.70;99.90
10662;DHT22;5379;51.034;7.006;2022-12-07T05:55:07;7.70;99.90
10662;DHT22;5379;51.034;7.006;2022-12-07T05:57:34;7.70;99.90
10662;DHT22;5379;51.034;7.006;2022-12-07T06:00:01;7.70;99.90
10662;DHT22;5379;51.034;7.006;2022-12-07T06:02:27;7.60;99.90
10662;DHT22;5379;51.034;7.006;2022-12-07T06:04:55;7.60;99.90
10662;DHT22;5379;51.034;7.006;2022-12-07T06:07:22;7.60;99.90
10662;DHT22;5379;51.034;7.006;2022-12-07T06:09:49;7.60;99.90
10662;DHT22;5379;51.034;7.006;2022-12-07T06:12:16;7.60;99.90
10662;DHT22;5379;51.034;7.006;2022-12-07T06:15:00;7.60;99.90
10662;DHT22;5379;51.034;7.006;2022-12-07T06:17:27;7.60;99.90
10662;DHT22;5379;51.034;7.006;2022-12-07T06:19:56;7.60;99.90
10662;DHT22;5379;51.034;7.006;2022-12-07T06:22:23;7.50;99.90
10662;DHT22;5379;51.034;7.006;2022-12-07T06:24:50;7.40;99.90
10662;DHT22;5379;51.034;7.006;2022-12-07T06:27:17;7.30;99.90
10662;DHT22;5379;51.034;7.006;2022-12-07T06:29:44;7.40;99.90
10662;DHT22;5379;51.034;7.006;2022-12-07T06:32:11;7.40;99.90
10662;DHT22;5379;51.034;7.006;2022-12-07T06:34:38;7.50;99.90
10662;DHT22;5379;51.034;7.006;2022-12-07T06:37:06;7.50;99.90
10662;DHT22;5379;51.034;7.006;2022-12-07T06:39:33;7.50;99.90
10662;DHT22;5379;51.034;7.006;2022-12-07T06:42:00;7.60;99.90
10662;DHT22;5379;51.034;7.006;2022-12-07T06:44:27;7.60;99.90
10662;DHT22;5379;51.034;7.006;2022-12-07T06:46:54;7.60;99.90
10662;DHT22;5379;51.034;7.006;2022-12-07T06:49:22;7.60;99.90
10662;DHT22;5379;51.034;7.006;2022-12-07T06:51:49;7.60;99.90
10662;DHT22;5379;51.034;7.006;2022-12-07T06:54:17;7.50;99.90
10662;DHT22;5379;51.034;7.006;2022-12-07T06:56:44;7.50;99.90
10662;DHT22;5379;51.034;7.006;2022-12-07T06:59:11;7.50;99.90
10662;DHT22;5379;51.034;7.006;2022-12-07T07:01:38;7.50;99.90
10662;DHT22;5379;51.034;7.006;2022-12-07T07:04:05;7.50;99.90
10662;DHT22;5379;51.034;7.006;2022-12-07T07:06:32;7.50;99.90
10662;DHT22;5379;51.034;7.006;2022-12-07T07:08:59;7.50;99.90
10662;DHT22;5379;51.034;7.006;2022-12-07T07:11:27;7.50;99.90
10662;DHT22;5379;51.034;7.006;2022-12-07T07:13:54;7.40;99.90
10662;DHT22;5379;51.034;7.006;2022-12-07T07:16:23;7.30;99.90
10662;DHT22;5379;51.034;7.006;2022-12-07T07:18:50;7.40;99.90
10662;DHT22;5379;51.034;7.006;2022-12-07T07:21:17;7.40;99.90
10662;DHT22;5379;51.034;7.006;2022-12-07T07:23:44;7.40;99.90
10662;DHT22;5379;51.034;7.006;2022-12-07T07:26:11;7.50;99.90
10662;DHT22;5379;51.034;7.006;2022-12-07T07:28:40;7.50;99.90
10662;DHT22;5379;51.034;7.006;2022-12-07T07:31:07;7.50;99.90
10662;DHT22;5379;51.034;7.006;2022-12-07T07:33:33;7.50;99.90
10662;DHT22;5379;51.034;7.006;2022-12-07T07:36:00;7.50;99.90
10662;DHT22;5379;51.034;7.006;2022-12-07T07:38:27;7.50;99.90
10662;DHT22;5379;51.034;7.006;2022-12-07T07:40:54;7.40;99.90
10662;DHT22;5379;51.034;7.006;2022-12-07T07:43:21;7.40;99.90
10662;DHT22;5379;51.034;7.006;2022-12-07T07:45:50;7.40;99.90
10662;DHT22;5379;51.034;7.006;2022-12-07T07:48:17;7.40;99.90
10662;DHT22;5379;51.034;7.006;2022-12-07T07:50:43;7.50;99.90
10662;DHT22;5379;51.034;7.006;2022-12-07T07:53:10;7.60;99.90
10662;DHT22;5379;51.034;7.006;2022-12-07T07:55:37;7.60;99.90
10662;DHT22;5379;51.034;7.006;2022-12-07T07:58:04;7.60;99.90
10662;DHT22;5379;51.034;7.006;2022-12-07T08:00:31;7.60;99.90
10662;DHT22;5379;51.034;7.006;2022-12-07T08:03:00;7.50;99.90
10662;DHT22;5379;51.034;7.006;2022-12-07T08:05:27;7.60;99.90
10662;DHT22;5379;51.034;7.006;2022-12-07T08:07:54;7.60;99.90
10662;DHT22;5379;51.034;7.006;2022-12-07T08:10:21;7.60;99.90
10662;DHT22;5379;51.034;7.006;2022-12-07T08:12:48;7.70;99.90
10662;DHT22;5379;51.034;7.006;2022-12-07T08:15:32;7.70;99.90
10662;DHT22;5379;51.034;7.006;2022-12-07T08:18:00;7.70;99.90
10662;DHT22;5379;51.034;7.006;2022-12-07T08:20:30;7.70;99.90
10662;DHT22;5379;51.034;7.006;2022-12-07T08:22:57;7.60;99.90
10662;DHT22;5379;51.034;7.006;2022-12-07T08:25:24;7.60;99.90
10662;DHT22;5379;51.034;7.006;2022-12-07T08:27:52;7.60;99.90
10662;DHT22;5379;51.034;7.006;2022-12-07T08:30:19;7.70;99.90
10662;DHT22;5379;51.034;7.006;2022-12-07T08:32:48;7.70;99.90
10662;DHT22;5379;51.034;7.006;2022-12-07T08:35:16;7.70;99.90
10662;DHT22;5379;51.034;7.006;2022-12-07T08:37:43;7.80;99.90
10662;DHT22;5379;51.034;7.006;2022-12-07T08:40:12;7.80;99.90
10662;DHT22;5379;51.034;7.006;2022-12-07T08:42:41;7.80;99.90
10662;DHT22;5379;51.034;7.006;2022-12-07T08:45:10;7.70;99.90
10662;DHT22;5379;51.034;7.006;2022-12-07T08:47:40;7.70;99.90
10662;DHT22;5379;51.034;7.006;2022-12-07T08:50:09;7.70;99.90
10662;DHT22;5379;51.034;7.006;2022-12-07T08:52:39;7.80;99.90
10662;DHT22;5379;51.034;7.006;2022-12-07T08:55:09;7.80;99.90
10662;DHT22;5379;51.034;7.006;2022-12-07T08:57:37;7.80;99.90
10662;DHT22;5379;51.034;7.006;2022-12-07T09:00:05;7.90;99.90
10662;DHT22;5379;51.034;7.006;2022-12-07T09:02:33;7.90;99.90
10662;DHT22;5379;51.034;7.006;2022-12-07T09:05:00;7.90;99.90
10662;DHT22;5379;51.034;7.006;2022-12-07T09:07:27;7.90;99.90
10662;DHT22;5379;51.034;7.006;2022-12-07T09:09:55;7.70;99.90
10662;DHT22;5379;51.034;7.006;2022-12-07T09:12:22;7.80;99.90
10662;DHT22;5379;51.034;7.006;2022-12-07T09:14:49;7.80;99.90
10662;DHT22;5379;51.034;7.006;2022-12-07T09:17:16;7.80;99.90
10662;DHT22;5379;51.034;7.006;2022-12-07T09:19:43;7.90;99.90
10662;DHT22;5379;51.034;7.006;2022-12-07T09:22:10;7.90;99.90
10662;DHT22;5379;51.034;7.006;2022-12-07T09:24:37;8.00;99.90
10662;DHT22;5379;51.034;7.006;2022-12-07T09:27:05;7.90;99.90
10662;DHT22;5379;51.034;7.006;2022-12-07T09:29:32;7.80;99.90
10662;DHT22;5379;51.034;7.006;2022-12-07T09:31:59;7.90;99.90
10662;DHT22;5379;51.034;7.006;2022-12-07T09:34:26;7.90;99.90
10662;DHT22;5379;51.034;7.006;2022-12-07T09:36:53;8.00;99.90
10662;DHT22;5379;51.034;7.006;2022-12-07T09:39:20;8.00;99.90
10662;DHT22;5379;51.034;7.006;2022-12-07T09:41:48;8.10;99.90
10662;DHT22;5379;51.034;7.006;2022-12-07T09:44:21;8.10;99.90
10662;DHT22;5379;51.034;7.006;2022-12-07T09:46:50;8.00;99.90
10662;DHT22;5379;51.034;7.006;2022-12-07T09:49:20;8.00;99.90
10662;DHT22;5379;51.034;7.006;2022-12-07T09:51:47;8.10;99.90
10662;DHT22;5379;51.034;7.006;2022-12-07T09:54:16;8.10;99.90
10662;DHT22;5379;51.034;7.006;2022-12-07T09:56:43;8.20;99.90
10662;DHT22;5379;51.034;7.006;2022-12-07T09:59:15;8.30;99.90
10662;DHT22;5379;51.034;7.006;2022-12-07T10:01:46;8.30;99.90
10662;DHT22;5379;51.034;7.006;2022-12-07T10:04:16;8.30;99.90
10662;DHT22;5379;51.034;7.006;2022-12-07T10:06:44;8.30;99.90
10662;DHT22;5379;51.034;7.006;2022-12-07T10:09:15;8.30;99.90
10662;DHT22;5379;51.034;7.006;2022-12-07T10:12:02;8.40;99.90
10662;DHT22;5379;51.034;7.006;2022-12-07T10:14:31;8.40;99.90
10662;DHT22;5379;51.034;7.006;2022-12-07T10:17:00;8.40;99.90
10662;DHT22;5379;51.034;7.006;2022-12-07T10:19:29;8.50;99.90
10662;DHT22;5379;51.034;7.006;2022-12-07T10:22:01;8.50;99.90
10662;DHT22;5379;51.034;7.006;2022-12-07T10:24:28;8.50;99.90
10662;DHT22;5379;51.034;7.006;2022-12-07T10:26:56;8.60;99.90
10662;DHT22;5379;51.034;7.006;2022-12-07T10:29:24;8.60;99.90
10662;DHT22;5379;51.034;7.006;2022-12-07T10:31:56;8.50;99.90
10662;DHT22;5379;51.034;7.006;2022-12-07T10:34:26;8.40;99.90
10662;DHT22;5379;51.034;7.006;2022-12-07T10:37:12;8.20;99.90
10662;DHT22;5379;51.034;7.006;2022-12-07T10:39:42;8.50;99.90
10662;DHT22;5379;51.034;7.006;2022-12-07T10:42:17;8.60;99.90
10662;DHT22;5379;51.034;7.006;2022-12-07T10:44:44;8.70;99.90
10662;DHT22;5379;51.034;7.006;2022-12-07T10:47:28;8.70;99.90
10662;DHT22;5379;51.034;7.006;2022-12-07T10:53:20;8.90;99.90
10662;DHT22;5379;51.034;7.006;2022-12-07T10:56:01;8.90;99.90
10662;DHT22;5379;51.034;7.006;2022-12-07T10:58:41;8.80;99.90
10662;DHT22;5379;51.034;7.006;2022-12-07T11:01:18;8.90;99.90
10662;DHT22;5379;51.034;7.006;2022-12-07T11:04:10;8.90;99.90
10662;DHT22;5379;51.034;7.006;2022-12-07T11:06:46;9.00;99.90
10662;DHT22;5379;51.034;7.006;2022-12-07T11:09:42;9.10;99.90
10662;DHT22;5379;51.034;7.006;2022-12-07T11:12:18;9.10;99.90
10662;DHT22;5379;51.034;7.006;2022-12-07T11:14:52;9.10;99.90
10662;DHT22;5379;51.034;7.006;2022-12-07T11:17:26;9.20;99.90
10662;DHT22;5379;51.034;7.006;2022-12-07T11:20:05;9.20;99.90
10662;DHT22;5379;51.034;7.006;2022-12-07T11:22:41;9.10;99.90
10662;DHT22;5379;51.034;7.006;2022-12-07T11:25:26;9.10;99.90
10662;DHT22;5379;51.034;7.006;2022-12-07T11:28:11;9.10;99.90
10662;DHT22;5379;51.034;7.006;2022-12-07T11:30:48;9.10;99.90
10662;DHT22;5379;51.034;7.006;2022-12-07T11:33:20;9.20;99.90
10662;DHT22;5379;51.034;7.006;2022-12-07T11:36:01;9.20;99.90
10662;DHT22;5379;51.034;7.006;2022-12-07T11:38:37;9.30;99.90
10662;DHT22;5379;51.034;7.006;2022-12-07T11:41:10;9.20;99.90
10662;DHT22;5379;51.034;7.006;2022-12-07T11:43:52;9.20;99.90
10662;DHT22;5379;51.034;7.006;2022-12-07T11:46:24;9.10;99.90
10662;DHT22;5379;51.034;7.006;2022-12-07T11:48:58;9.10;99.90
10662;DHT22;5379;51.034;7.006;2022-12-07T11:51:30;9.10;99.90
10662;DHT22;5379;51.034;7.006;2022-12-07T11:54:02;9.20;99.90
10662;DHT22;5379;51.034;7.006;2022-12-07T11:56:35;9.20;99.90
10662;DHT22;5379;51.034;7.006;2022-12-07T11:59:11;9.30;99.90
10662;DHT22;5379;51.034;7.006;2022-12-07T12:01:48;9.30;99.90
10662;DHT22;5379;51.034;7.006;2022-12-07T12:04:28;9.30;99.90
10662;DHT22;5379;51.034;7.006;2022-12-07T12:06:57;9.10;99.90
10662;DHT22;5379;51.034;7.006;2022-12-07T12:09:29;9.10;99.90
10662;DHT22;5379;51.034;7.006;2022-12-07T12:12:23;9.10;99.90
10662;DHT22;5379;51.034;7.006;2022-12-07T12:15:01;9.20;99.90
10662;DHT22;5379;51.034;7.006;2022-12-07T12:17:51;9.20;99.90
10662;DHT22;5379;51.034;7.006;2022-12-07T12:20:25;9.30;99.90
10662;DHT22;5379;51.034;7.006;2022-12-07T12:22:58;9.50;99.90
10662;DHT22;5379;51.034;7.006;2022-12-07T12:25:28;9.50;99.90
10662;DHT22;5379;51.034;7.006;2022-12-07T12:27:58;9.50;99.90
10662;DHT22;5379;51.034;7.006;2022-12-07T12:30:34;9.30;99.90
10662;DHT22;5379;51.034;7.006;2022-12-07T12:33:04;9.30;99.90
10662;DHT22;5379;51.034;7.006;2022-12-07T12:35:34;9.40;99.90
10662;DHT22;5379;51.034;7.006;2022-12-07T12:38:25;9.40;99.90
10662;DHT22;5379;51.034;7.006;2022-12-07T12:40:52;9.40;99.90
10662;DHT22;5379;51.034;7.006;2022-12-07T12:43:48;9.60;99.90
10662;DHT22;5379;51.034;7.006;2022-12-07T12:46:38;9.70;99.90
10662;DHT22;5379;51.034;7.006;2022-12-07T12:49:35;9.70;99.90
10662;DHT22;5379;51.034;7.006;2022-12-07T12:58:32;9.50;99.90
10662;DHT22;5379;51.034;7.006;2022-12-07T13:04:37;9.80;99.90
10662;DHT22;5379;51.034;7.006;2022-12-07T13:07:13;10.00;99.90
10662;DHT22;5379;51.034;7.006;2022-12-07T13:09:43;10.20;99.90
10662;DHT22;5379;51.034;7.006;2022-12-07T13:12:14;10.10;99.90
10662;DHT22;5379;51.034;7.006;2022-12-07T13:14:53;10.20;99.90
10662;DHT22;5379;51.034;7.006;2022-12-07T13:20:52;9.80;99.90
10662;DHT22;5379;51.034;7.006;2022-12-07T13:23:25;9.60;99.90
10662;DHT22;5379;51.034;7.006;2022-12-07T13:25:59;9.60;99.90
10662;DHT22;5379;51.034;7.006;2022-12-07T13:28:33;9.70;99.90
10662;DHT22;5379;51.034;7.006;2022-12-07T13:31:10;9.70;99.90
10662;DHT22;5379;51.034;7.006;2022-12-07T13:33:38;9.80;99.90
10662;DHT22;5379;51.034;7.006;2022-12-07T13:36:16;9.70;99.90
10662;DHT22;5379;51.034;7.006;2022-12-07T13:38:53;9.70;99.90
10662;DHT22;5379;51.034;7.006;2022-12-07T13:41:21;9.60;99.90
10662;DHT22;5379;51.034;7.006;2022-12-07T13:43:52;9.40;99.90
10662;DHT22;5379;51.034;7.006;2022-12-07T13:46:24;9.30;99.90
10662;DHT22;5379;51.034;7.006;2022-12-07T13:48:52;9.20;99.90
10662;DHT22;5379;51.034;7.006;2022-12-07T13:51:23;9.20;99.90
10662;DHT22;5379;51.034;7.006;2022-12-07T13:53:53;9.20;99.90
10662;DHT22;5379;51.034;7.006;2022-12-07T13:56:27;9.40;99.90
10662;DHT22;5379;51.034;7.006;2022-12-07T13:58:55;9.40;99.90
10662;DHT22;5379;51.034;7.006;2022-12-07T14:01:22;9.40;99.90
10662;DHT22;5379;51.034;7.006;2022-12-07T14:03:50;9.40;99.90
10662;DHT22;5379;51.034;7.006;2022-12-07T14:06:24;9.40;99.90
10662;DHT22;5379;51.034;7.006;2022-12-07T14:09:14;9.40;99.90
10662;DHT22;5379;51.034;7.006;2022-12-07T14:11:43;9.30;99.90
10662;DHT22;5379;51.034;7.006;2022-12-07T14:14:15;9.20;99.90
10662;DHT22;5379;51.034;7.006;2022-12-07T14:16:43;9.20;99.90
10662;DHT22;5379;51.034;7.006;2022-12-07T14:19:41;9.20;99.90
10662;DHT22;5379;51.034;7.006;2022-12-07T14:22:22;9.20;99.90
10662;DHT22;5379;51.034;7.006;2022-12-07T14:24:49;9.30;99.90
10662;DHT22;5379;51.034;7.006;2022-12-07T14:27:18;9.30;99.90
10662;DHT22;5379;51.034;7.006;2022-12-07T14:29:45;9.40;99.90
10662;DHT22;5379;51.034;7.006;2022-12-07T14:32:19;9.40;99.90
10662;DHT22;5379;51.034;7.006;2022-12-07T14:34:55;9.20;99.90
10662;DHT22;5379;51.034;7.006;2022-12-07T14:37:24;9.30;99.90
10662;DHT22;5379;51.034;7.006;2022-12-07T14:39:51;9.30;99.90
10662;DHT22;5379;51.034;7.006;2022-12-07T14:42:19;9.40;99.90
10662;DHT22;5379;51.034;7.006;2022-12-07T14:44:46;9.30;99.90
10662;DHT22;5379;51.034;7.006;2022-12-07T14:47:13;9.40;99.90
10662;DHT22;5379;51.034;7.006;2022-12-07T14:49:40;9.30;99.90
10662;DHT22;5379;51.034;7.006;2022-12-07T14:52:12;9.30;99.90
10662;DHT22;5379;51.034;7.006;2022-12-07T14:54:41;9.20;99.90
10662;DHT22;5379;51.034;7.006;2022-12-07T14:57:09;9.20;99.90
10662;DHT22;5379;51.034;7.006;2022-12-07T14:59:36;9.10;99.90
10662;DHT22;5379;51.034;7.006;2022-12-07T15:02:04;9.00;99.90
10662;DHT22;5379;51.034;7.006;2022-12-07T15:04:31;9.00;99.90
10662;DHT22;5379;51.034;7.006;2022-12-07T15:07:00;9.10;99.90
10662;DHT22;5379;51.034;7.006;2022-12-07T15:09:27;9.10;99.90
10662;DHT22;5379;51.034;7.006;2022-12-07T15:11:56;9.10;99.90
10662;DHT22;5379;51.034;7.006;2022-12-07T15:14:23;9.10;99.90
10662;DHT22;5379;51.034;7.006;2022-12-07T15:16:50;9.10;99.90
10662;DHT22;5379;51.034;7.006;2022-12-07T15:19:18;9.20;99.90
10662;DHT22;5379;51.034;7.006;2022-12-07T15:21:48;9.20;99.90
10662;DHT22;5379;51.034;7.006;2022-12-07T15:24:15;9.10;99.90
10662;DHT22;5379;51.034;7.006;2022-12-07T15:26:42;9.10;99.90
10662;DHT22;5379;51.034;7.006;2022-12-07T15:29:11;9.10;99.90
10662;DHT22;5379;51.034;7.006;2022-12-07T15:31:40;9.20;99.90
10662;DHT22;5379;51.034;7.006;2022-12-07T15:34:07;9.20;99.90
10662;DHT22;5379;51.034;7.006;2022-12-07T15:36:34;9.10;99.90
10662;DHT22;5379;51.034;7.006;2022-12-07T15:39:02;9.20;99.90
10662;DHT22;5379;51.034;7.006;2022-12-07T15:41:29;9.00;99.90
10662;DHT22;5379;51.034;7.006;2022-12-07T15:43:56;8.80;99.90
10662;DHT22;5379;51.034;7.006;2022-12-07T15:46:41;8.70;99.90
10662;DHT22;5379;51.034;7.006;2022-12-07T15:49:12;8.60;99.90
10662;DHT22;5379;51.034;7.006;2022-12-07T15:51:39;8.60;99.90
10662;DHT22;5379;51.034;7.006;2022-12-07T15:54:07;8.60;99.90
10662;DHT22;5379;51.034;7.006;2022-12-07T15:56:34;8.60;99.90
10662;DHT22;5379;51.034;7.006;2022-12-07T15:59:03;8.60;99.90
10662;DHT22;5379;51.034;7.006;2022-12-07T16:01:30;8.70;99.90
10662;DHT22;5379;51.034;7.006;2022-12-07T16:03:58;8.60;99.90
10662;DHT22;5379;51.034;7.006;2022-12-07T16:06:25;8.50;99.90
10662;DHT22;5379;51.034;7.006;2022-12-07T16:08:53;8.50;99.90
10662;DHT22;5379;51.034;7.006;2022-12-07T16:11:20;8.50;99.90
10662;DHT22;5379;51.034;7.006;2022-12-07T16:13:47;8.50;99.90
10662;DHT22;5379;51.034;7.006;2022-12-07T16:16:16;8.50;99.90
10662;DHT22;5379;51.034;7.006;2022-12-07T16:18:44;8.60;99.90
10662;DHT22;5379;51.034;7.006;2022-12-07T16:21:13;8.70;99.90
10662;DHT22;5379;51.034;7.006;2022-12-07T16:23:41;8.70;99.90
10662;DHT22;5379;51.034;7.006;2022-12-07T16:26:12;8.60;99.90
10662;DHT22;5379;51.034;7.006;2022-12-07T16:28:39;8.50;99.90
10662;DHT22;5379;51.034;7.006;2022-12-07T16:31:08;8.50;99.90
10662;DHT22;5379;51.034;7.006;2022-12-07T16:33:37;8.60;99.90
10662;DHT22;5379;51.034;7.006;2022-12-07T16:36:06;8.70;99.90
10662;DHT22;5379;51.034;7.006;2022-12-07T16:38:36;8.60;99.90
10662;DHT22;5379;51.034;7.006;2022-12-07T16:41:03;8.60;99.90
10662;DHT22;5379;51.034;7.006;2022-12-07T16:43:30;8.60;99.90
10662;DHT22;5379;51.034;7.006;2022-12-07T16:45:57;8.50;99.90
10662;DHT22;5379;51.034;7.006;2022-12-07T16:48:24;8.30;99.90
10662;DHT22;5379;51.034;7.006;2022-12-07T16:50:51;8.30;99.90
10662;DHT22;5379;51.034;7.006;2022-12-07T16:53:20;8.40;99.90
10662;DHT22;5379;51.034;7.006;2022-12-07T16:55:49;8.40;99.90
10662;DHT22;5379;51.034;7.006;2022-12-07T16:58:17;8.40;99.90
10662;DHT22;5379;51.034;7.006;2022-12-07T17:00:44;8.40;99.90
10662;DHT22;5379;51.034;7.006;2022-12-07T17:03:11;8.40;99.90
10662;DHT22;5379;51.034;7.006;2022-12-07T17:05:39;8.30;99.90
10662;DHT22;5379;51.034;7.006;2022-12-07T17:08:07;8.30;99.90
10662;DHT22;5379;51.034;7.006;2022-12-07T17:10:35;8.30;99.90
10662;DHT22;5379;51.034;7.006;2022-12-07T17:13:04;8.40;99.90
10662;DHT22;5379;51.034;7.006;2022-12-07T17:15:56;8.40;99.90
10662;DHT22;5379;51.034;7.006;2022-12-07T17:18:22;8.40;99.90
10662;DHT22;5379;51.034;7.006;2022-12-07T17:20:49;8.50;99.90
10662;DHT22;5379;51.034;7.006;2022-12-07T17:23:16;8.50;99.90
10662;DHT22;5379;51.034;7.006;2022-12-07T17:25:43;8.60;99.90
10662;DHT22;5379;51.034;7.006;2022-12-07T17:28:11;8.40;99.90
10662;DHT22;5379;51.034;7.006;2022-12-07T17:30:39;8.40;99.90
10662;DHT22;5379;51.034;7.006;2022-12-07T17:33:06;8.40;99.90
10662;DHT22;5379;51.034;7.006;2022-12-07T17:35:32;8.30;99.90
10662;DHT22;5379;51.034;7.006;2022-12-07T17:37:59;8.50;99.90
10662;DHT22;5379;51.034;7.006;2022-12-07T17:40:26;8.50;99.90
10662;DHT22;5379;51.034;7.006;2022-12-07T17:42:53;8.50;99.90
10662;DHT22;5379;51.034;7.006;2022-12-07T17:45:22;8.50;99.90
10662;DHT22;5379;51.034;7.006;2022-12-07T17:47:49;8.50;99.90
10662;DHT22;5379;51.034;7.006;2022-12-07T17:50:18;8.50;99.90
10662;DHT22;5379;51.034;7.006;2022-12-07T17:53:07;8.40;99.90
10662;DHT22;5379;51.034;7.006;2022-12-07T17:55:36;8.40;99.90
10662;DHT22;5379;51.034;7.006;2022-12-07T17:58:03;8.40;99.90
10662;DHT22;5379;51.034;7.006;2022-12-07T18:00:31;8.50;99.90
10662;DHT22;5379;51.034;7.006;2022-12-07T18:03:04;8.70;99.90
10662;DHT22;5379;51.034;7.006;2022-12-07T18:05:32;8.70;99.90
10662;DHT22;5379;51.034;7.006;2022-12-07T18:07:59;8.60;99.90
10662;DHT22;5379;51.034;7.006;2022-12-07T18:10:26;8.70;99.90
10662;DHT22;5379;51.034;7.006;2022-12-07T18:12:53;8.50;99.90
10662;DHT22;5379;51.034;7.006;2022-12-07T18:15:42;8.40;99.90
10662;DHT22;5379;51.034;7.006;2022-12-07T18:18:09;8.40;99.90
10662;DHT22;5379;51.034;7.006;2022-12-07T18:20:36;8.40;99.90
10662;DHT22;5379;51.034;7.006;2022-12-07T18:23:03;8.50;99.90
10662;DHT22;5379;51.034;7.006;2022-12-07T18:25:30;8.60;99.90
10662;DHT22;5379;51.034;7.006;2022-12-07T18:27:57;8.60;99.90
10662;DHT22;5379;51.034;7.006;2022-12-07T18:30:24;8.70;99.90
10662;DHT22;5379;51.034;7.006;2022-12-07T18:32:52;8.80;99.90
10662;DHT22;5379;51.034;7.006;2022-12-07T18:35:19;8.70;99.90
10662;DHT22;5379;51.034;7.006;2022-12-07T18:37:46;8.60;99.90
10662;DHT22;5379;51.034;7.006;2022-12-07T18:40:13;8.80;99.90
10662;DHT22;5379;51.034;7.006;2022-12-07T18:42:40;8.80;99.90
10662;DHT22;5379;51.034;7.006;2022-12-07T18:45:08;8.80;99.90
10662;DHT22;5379;51.034;7.006;2022-12-07T18:47:35;8.90;99.90
10662;DHT22;5379;51.034;7.006;2022-12-07T18:50:04;8.90;99.90
10662;DHT22;5379;51.034;7.006;2022-12-07T18:52:31;8.80;99.90
10662;DHT22;5379;51.034;7.006;2022-12-07T18:54:58;8.70;99.90
10662;DHT22;5379;51.034;7.006;2022-12-07T18:57:30;8.60;99.90
10662;DHT22;5379;51.034;7.006;2022-12-07T18:59:57;8.50;99.90
10662;DHT22;5379;51.034;7.006;2022-12-07T19:02:24;8.50;99.90
10662;DHT22;5379;51.034;7.006;2022-12-07T19:04:51;8.60;99.90
10662;DHT22;5379;51.034;7.006;2022-12-07T19:07:19;8.60;99.90
10662;DHT22;5379;51.034;7.006;2022-12-07T19:09:46;8.70;99.90
10662;DHT22;5379;51.034;7.006;2022-12-07T19:12:13;8.80;99.90
10662;DHT22;5379;51.034;7.006;2022-12-07T19:14:40;8.80;99.90
10662;DHT22;5379;51.034;7.006;2022-12-07T19:17:09;8.80;99.90
10662;DHT22;5379;51.034;7.006;2022-12-07T19:19:38;8.70;99.90
10662;DHT22;5379;51.034;7.006;2022-12-07T19:22:07;8.60;99.90
10662;DHT22;5379;51.034;7.006;2022-12-07T19:24:36;8.60;99.90
10662;DHT22;5379;51.034;7.006;2022-12-07T19:27:04;8.60;99.90
10662;DHT22;5379;51.034;7.006;2022-12-07T19:29:31;8.70;99.90
10662;DHT22;5379;51.034;7.006;2022-12-07T19:31:58;8.70;99.90
10662;DHT22;5379;51.034;7.006;2022-12-07T19:34:25;8.70;99.90
10662;DHT22;5379;51.034;7.006;2022-12-07T19:36:52;8.80;99.90
10662;DHT22;5379;51.034;7.006;2022-12-07T19:39:19;8.80;99.90
10662;DHT22;5379;51.034;7.006;2022-12-07T19:41:48;8.60;99.90
10662;DHT22;5379;51.034;7.006;2022-12-07T19:44:16;8.70;99.90
10662;DHT22;5379;51.034;7.006;2022-12-07T19:46:45;8.70;99.90
10662;DHT22;5379;51.034;7.006;2022-12-07T19:49:13;8.70;99.90
10662;DHT22;5379;51.034;7.006;2022-12-07T19:51:41;8.80;99.90
10662;DHT22;5379;51.034;7.006;2022-12-07T19:54:09;8.80;99.90
10662;DHT22;5379;51.034;7.006;2022-12-07T19:56:37;8.80;99.90
10662;DHT22;5379;51.034;7.006;2022-12-07T19:59:06;8.70;99.90
10662;DHT22;5379;51.034;7.006;2022-12-07T20:01:33;8.50;99.90
10662;DHT22;5379;51.034;7.006;2022-12-07T20:04:04;8.30;99.90
10662;DHT22;5379;51.034;7.006;2022-12-07T20:06:32;8.30;99.90
10662;DHT22;5379;51.034;7.006;2022-12-07T20:08:59;8.30;99.90
10662;DHT22;5379;51.034;7.006;2022-12-07T20:11:26;8.30;99.90
10662;DHT22;5379;51.034;7.006;2022-12-07T20:14:12;8.30;99.90
10662;DHT22;5379;51.034;7.006;2022-12-07T20:16:39;8.30;99.90
10662;DHT22;5379;51.034;7.006;2022-12-07T20:19:09;8.30;99.90
10662;DHT22;5379;51.034;7.006;2022-12-07T20:21:39;8.30;99.90
10662;DHT22;5379;51.034;7.006;2022-12-07T20:24:07;8.20;99.90
10662;DHT22;5379;51.034;7.006;2022-12-07T20:26:36;8.10;99.90
10662;DHT22;5379;51.034;7.006;2022-12-07T20:29:04;8.00;99.90
10662;DHT22;5379;51.034;7.006;2022-12-07T20:31:33;8.00;99.90
10662;DHT22;5379;51.034;7.006;2022-12-07T20:34:00;8.10;99.90
10662;DHT22;5379;51.034;7.006;2022-12-07T20:36:28;8.10;99.90